createdAt,value
2022-10-18T00:02:16.873Z,32.85
2022-10-18T00:04:43.621Z,32.40
2022-10-18T00:07:10.198Z,31.40
2022-10-18T00:09:36.795Z,33.67
2022-10-18T00:12:04.124Z,35.85
2022-10-18T00:14:30.799Z,33.88
2022-10-18T00:16:57.701Z,29.50
2022-10-18T00:19:26.038Z,32.50
2022-10-18T00:21:55.298Z,38.60
2022-10-18T00:24:21.889Z,31.27
2022-10-18T00:26:50.863Z,30.08
2022-10-18T00:29:17.538Z,31.00
2022-10-18T00:31:46.490Z,32.63
2022-10-18T00:34:14.737Z,29.02
2022-10-18T00:36:42.433Z,30.23
2022-10-18T00:39:14.168Z,29.70
2022-10-18T00:41:43.739Z,27.77
2022-10-18T00:44:13.191Z,31.08
2022-10-18T00:46:43.018Z,35.20
2022-10-18T00:49:13.460Z,29.73
2022-10-18T00:51:56.218Z,31.60
2022-10-18T00:54:23.713Z,29.88
2022-10-18T00:56:50.960Z,33.78
2022-10-18T00:59:18.610Z,29.25
2022-10-18T01:01:45.722Z,32.70
2022-10-18T01:04:14.581Z,29.95
2022-10-18T01:06:59.715Z,33.70
2022-10-18T01:09:38.871Z,35.95
2022-10-18T01:12:25.996Z,32.28
2022-10-18T01:15:13.616Z,34.33
2022-10-18T01:17:49.009Z,30.67
2022-10-18T01:20:41.521Z,28.38
2022-10-18T01:23:16.069Z,32.08
2022-10-18T01:26:01.346Z,31.38
2022-10-18T01:28:49.138Z,28.88
2022-10-18T01:31:21.535Z,29.38
2022-10-18T01:33:55.100Z,27.90
2022-10-18T01:36:34.552Z,29.42
2022-10-18T01:39:06.201Z,32.75
2022-10-18T01:41:35.965Z,31.10
2022-10-18T01:44:06.413Z,30.45
2022-10-18T01:46:33.900Z,31.80
2022-10-18T01:49:00.545Z,32.60
2022-10-18T01:51:29.436Z,31.92
2022-10-18T01:53:56.937Z,28.15
2022-10-18T01:56:35.299Z,31.83
2022-10-18T01:59:30.504Z,29.95
2022-10-18T02:01:59.719Z,26.52
2022-10-18T02:05:01.898Z,31.50
2022-10-18T02:07:41.762Z,29.30
2022-10-18T02:12:48.870Z,29.65
2022-10-18T02:15:19.911Z,27.73
2022-10-18T02:17:47.257Z,31.48
2022-10-18T02:20:19.739Z,27.88
2022-10-18T02:22:49.535Z,28.65
2022-10-18T02:25:23.349Z,30.98
2022-10-18T02:27:56.233Z,33.38
2022-10-18T02:30:29.399Z,28.95
2022-10-18T02:33:04.327Z,28.45
2022-10-18T02:35:40.952Z,27.20
2022-10-18T02:38:09.595Z,29.98
2022-10-18T02:40:36.291Z,32.30
2022-10-18T02:43:05.814Z,33.00
2022-10-18T02:45:33.014Z,29.63
2022-10-18T02:47:59.862Z,27.95
2022-10-18T02:50:26.572Z,28.27
2022-10-18T02:52:53.206Z,31.08
2022-10-18T02:55:20.145Z,30.00
2022-10-18T02:57:46.789Z,28.38
2022-10-18T03:00:14.018Z,29.27
2022-10-18T03:02:40.631Z,29.00
2022-10-18T03:05:07.455Z,32.53
2022-10-18T03:07:34.297Z,30.83
2022-10-18T03:10:01.083Z,25.23
2022-10-18T03:12:27.670Z,28.95
2022-10-18T03:14:54.418Z,28.08
2022-10-18T03:17:21.087Z,28.95
2022-10-18T03:19:47.674Z,31.20
2022-10-18T03:22:14.405Z,28.35
2022-10-18T03:24:41.190Z,27.35
2022-10-18T03:27:07.970Z,24.10
2022-10-18T03:29:36.964Z,25.90
2022-10-18T03:32:03.877Z,31.55
2022-10-18T03:34:30.502Z,28.50
2022-10-18T03:37:00.950Z,28.23
2022-10-18T03:39:30.093Z,25.58
2022-10-18T03:41:56.817Z,26.15
2022-10-18T03:44:23.411Z,27.00
2022-10-18T03:46:50.064Z,26.95
2022-10-18T03:49:16.630Z,26.33
2022-10-18T03:51:43.271Z,26.17
2022-10-18T03:54:09.902Z,24.88
2022-10-18T03:56:36.530Z,26.70
2022-10-18T03:59:04.505Z,25.05
2022-10-18T04:01:31.481Z,30.25
2022-10-18T04:03:58.114Z,27.20
2022-10-18T04:06:24.770Z,30.42
2022-10-18T04:08:51.351Z,29.17
2022-10-18T04:11:18.069Z,31.35
2022-10-18T04:13:44.629Z,29.13
2022-10-18T04:16:11.407Z,29.45
2022-10-18T04:18:38.297Z,27.25
2022-10-18T04:21:05.149Z,32.15
2022-10-18T04:23:35.019Z,28.77
2022-10-18T04:26:04.646Z,24.73
2022-10-18T04:28:37.538Z,26.88
2022-10-18T04:33:30.759Z,28.05
2022-10-18T04:35:57.365Z,30.15
2022-10-18T04:38:24.293Z,30.25
2022-10-18T04:40:50.933Z,30.95
2022-10-18T04:43:17.627Z,34.72
2022-10-18T04:45:48.195Z,32.50
2022-10-18T04:48:15.354Z,32.88
2022-10-18T04:50:41.951Z,30.25
2022-10-18T04:53:14.160Z,31.53
2022-10-18T04:55:44.187Z,35.47
2022-10-18T04:58:11.359Z,29.95
2022-10-18T05:00:40.032Z,28.85
2022-10-18T05:03:07.732Z,35.28
2022-10-18T05:05:43.458Z,28.70
2022-10-18T05:08:21.746Z,33.58
2022-10-18T05:10:48.476Z,30.83
2022-10-18T05:13:15.449Z,35.08
2022-10-18T05:15:42.102Z,29.17
2022-10-18T05:18:08.702Z,32.25
2022-10-18T05:20:35.301Z,29.83
2022-10-18T05:23:01.966Z,32.92
2022-10-18T05:25:28.687Z,34.50
2022-10-18T05:27:55.272Z,33.92
2022-10-18T05:30:21.925Z,30.83
2022-10-18T05:32:48.727Z,33.10
2022-10-18T05:35:15.417Z,31.90
2022-10-18T05:37:42.055Z,34.05
2022-10-18T05:40:12.650Z,36.05
2022-10-18T05:42:43.192Z,30.80
2022-10-18T05:45:09.911Z,36.53
2022-10-18T05:47:36.701Z,31.50
2022-10-18T05:50:03.831Z,35.42
2022-10-18T05:52:30.857Z,33.42
2022-10-18T05:54:57.618Z,40.35
2022-10-18T05:57:24.275Z,36.72
2022-10-18T05:59:50.904Z,44.17
2022-10-18T06:02:17.553Z,36.88
2022-10-18T06:04:44.250Z,36.08
2022-10-18T06:07:11.486Z,43.80
2022-10-18T06:09:38.911Z,42.35
2022-10-18T06:12:05.806Z,46.63
2022-10-18T06:14:32.455Z,44.80
2022-10-18T06:16:59.053Z,40.80
2022-10-18T06:19:26.013Z,48.17
2022-10-18T06:21:52.737Z,48.95
2022-10-18T06:24:21.596Z,49.33
2022-10-18T06:26:48.323Z,75.82
2022-10-18T06:29:15.074Z,140.60
2022-10-18T06:31:41.753Z,46.17
2022-10-18T06:34:08.326Z,63.50
2022-10-18T06:36:35.022Z,40.30
2022-10-18T06:39:02.547Z,41.78
2022-10-18T06:41:29.194Z,39.63
2022-10-18T06:44:15.558Z,39.65
2022-10-18T06:46:42.224Z,42.72
2022-10-18T06:49:09.146Z,32.20
2022-10-18T06:51:35.838Z,58.80
2022-10-18T06:54:17.395Z,43.83
2022-10-18T06:56:45.489Z,46.67
2022-10-18T06:59:12.233Z,53.08
2022-10-18T07:01:39.023Z,49.33
2022-10-18T07:04:05.752Z,39.97
2022-10-18T07:06:32.439Z,36.00
2022-10-18T07:08:59.444Z,64.72
2022-10-18T07:11:27.170Z,43.10
2022-10-18T07:13:55.078Z,35.72
2022-10-18T07:16:21.971Z,45.67
2022-10-18T07:18:51.007Z,41.45
2022-10-18T07:21:20.013Z,33.80
2022-10-18T07:23:47.357Z,30.30
2022-10-18T07:26:19.658Z,35.10
2022-10-18T07:28:49.323Z,33.15
2022-10-18T07:31:17.313Z,34.08
2022-10-18T07:33:43.968Z,27.98
2022-10-18T07:36:11.990Z,27.88
2022-10-18T07:38:38.931Z,31.08
2022-10-18T07:41:07.659Z,34.88
2022-10-18T07:43:35.547Z,34.60
2022-10-18T07:46:05.116Z,33.42
2022-10-18T07:48:31.954Z,33.63
2022-10-18T07:51:00.358Z,27.30
2022-10-18T07:53:27.936Z,28.38
2022-10-18T07:55:59.064Z,29.27
2022-10-18T07:58:25.835Z,29.33
2022-10-18T08:00:52.504Z,45.95
2022-10-18T08:03:19.333Z,32.63
2022-10-18T08:05:52.856Z,34.75
2022-10-18T08:08:20.973Z,35.70
2022-10-18T08:10:47.740Z,45.17
2022-10-18T08:13:15.213Z,38.85
2022-10-18T08:15:41.868Z,41.88
2022-10-18T08:18:08.531Z,39.95
2022-10-18T08:20:36.912Z,41.40
2022-10-18T08:23:04.845Z,34.13
2022-10-18T08:25:31.661Z,32.35
2022-10-18T08:27:58.595Z,29.75
2022-10-18T08:30:25.342Z,32.67
2022-10-18T08:32:51.951Z,29.42
2022-10-18T08:35:18.611Z,26.88
2022-10-18T08:37:45.411Z,24.70
2022-10-18T08:40:15.716Z,22.73
2022-10-18T08:43:31.777Z,28.17
2022-10-18T08:45:59.219Z,23.70
2022-10-18T08:48:35.406Z,21.75
2022-10-18T08:51:05.100Z,19.00
2022-10-18T08:53:51.764Z,24.38
2022-10-18T08:56:24.133Z,21.27
2022-10-18T08:58:51.038Z,26.38
2022-10-18T09:01:51.850Z,27.92
2022-10-18T09:04:48.514Z,26.92
2022-10-18T09:07:24.582Z,24.92
2022-10-18T09:10:28.878Z,22.55
2022-10-18T09:13:17.463Z,26.25
2022-10-18T09:16:26.917Z,27.30
2022-10-18T09:19:09.334Z,22.23
2022-10-18T09:21:52.616Z,24.10
2022-10-18T09:24:43.122Z,23.20
2022-10-18T09:27:18.669Z,22.17
2022-10-18T09:29:50.699Z,24.38
2022-10-18T09:32:38.787Z,21.15
2022-10-18T09:35:22.717Z,22.67
2022-10-18T09:37:50.591Z,27.02
2022-10-18T09:40:26.867Z,20.45
2022-10-18T09:42:56.918Z,16.80
2022-10-18T09:45:29.304Z,24.83
2022-10-18T09:48:20.510Z,20.70
2022-10-18T09:51:02.655Z,20.20
2022-10-18T09:53:50.226Z,23.27
2022-10-18T09:56:29.694Z,22.58
2022-10-18T09:58:56.331Z,19.77
2022-10-18T10:01:25.523Z,19.27
2022-10-18T10:03:52.404Z,17.17
2022-10-18T10:06:30.355Z,24.13
2022-10-18T10:09:01.233Z,21.35
2022-10-18T10:11:38.136Z,19.47
2022-10-18T10:14:26.601Z,23.55
2022-10-18T10:17:06.897Z,20.88
2022-10-18T10:19:53.442Z,18.85
2022-10-18T10:22:35.267Z,23.48
2022-10-18T10:27:43.835Z,21.58
2022-10-18T10:30:34.099Z,27.10
2022-10-18T10:33:01.558Z,17.95
2022-10-18T10:35:53.931Z,19.45
2022-10-18T10:38:28.658Z,17.10
2022-10-18T10:40:56.126Z,17.80
2022-10-18T10:43:43.285Z,35.95
2022-10-18T10:46:13.049Z,20.65
2022-10-18T10:49:04.197Z,16.73
2022-10-18T10:51:40.814Z,22.25
2022-10-18T10:54:17.780Z,15.93
2022-10-18T10:57:08.568Z,21.42
2022-10-18T10:59:44.423Z,17.20
2022-10-18T11:02:13.960Z,16.90
2022-10-18T11:04:42.138Z,16.48
2022-10-18T11:07:30.332Z,13.40
2022-10-18T11:10:16.852Z,19.95
2022-10-18T11:13:04.715Z,14.35
2022-10-18T11:15:39.802Z,14.80
2022-10-18T11:18:22.988Z,20.50
2022-10-18T11:20:49.577Z,16.08
2022-10-18T11:23:18.063Z,14.23
2022-10-18T11:26:15.519Z,16.35
2022-10-18T11:28:57.495Z,14.75
2022-10-18T11:31:35.795Z,17.73
2022-10-18T11:34:14.229Z,16.15
2022-10-18T11:37:32.180Z,15.65
2022-10-18T11:40:19.953Z,15.00
2022-10-18T11:43:06.626Z,15.02
2022-10-18T11:45:39.474Z,19.30
2022-10-18T11:48:18.755Z,16.83
2022-10-18T11:50:53.947Z,13.95
2022-10-18T11:53:34.999Z,14.07
2022-10-18T11:56:29.101Z,16.73
2022-10-18T11:59:37.653Z,14.65
2022-10-18T12:02:13.371Z,15.15
2022-10-18T12:05:05.123Z,18.38
2022-10-18T12:07:41.578Z,17.55
2022-10-18T12:10:19.480Z,15.32
2022-10-18T12:13:02.688Z,14.95
2022-10-18T12:15:33.715Z,16.13
2022-10-18T12:18:06.401Z,18.02
2022-10-18T12:20:36.386Z,17.15
2022-10-18T12:23:09.764Z,14.27
2022-10-18T12:25:40.377Z,21.42
2022-10-18T12:28:29.085Z,14.70
2022-10-18T12:31:13.599Z,14.70
2022-10-18T12:33:44.751Z,15.60
2022-10-18T12:36:45.018Z,14.27
2022-10-18T12:39:37.600Z,13.65
2022-10-18T12:42:31.198Z,13.93
2022-10-18T12:45:28.407Z,16.23
2022-10-18T12:47:59.248Z,18.13
2022-10-18T12:50:38.683Z,16.60
2022-10-18T12:53:26.607Z,14.57
2022-10-18T12:55:54.099Z,14.95
2022-10-18T12:58:22.615Z,16.30
2022-10-18T13:00:49.210Z,15.80
2022-10-18T13:03:18.517Z,14.68
2022-10-18T13:05:53.795Z,14.45
2022-10-18T13:08:27.307Z,17.60
2022-10-18T13:11:09.052Z,17.38
2022-10-18T13:13:44.776Z,14.50
2022-10-18T13:16:20.657Z,14.15
2022-10-18T13:18:55.047Z,15.38
2022-10-18T13:21:40.506Z,14.57
2022-10-18T13:24:24.224Z,13.48
2022-10-18T13:30:16.745Z,14.93
2022-10-18T13:35:57.238Z,16.08
2022-10-18T13:38:30.080Z,21.02
2022-10-18T13:41:17.209Z,13.27
2022-10-18T13:43:53.245Z,15.65
2022-10-18T13:46:20.445Z,15.93
2022-10-18T13:48:48.685Z,16.65
2022-10-18T13:51:48.627Z,15.68
2022-10-18T13:54:44.017Z,14.13
2022-10-18T13:57:45.226Z,15.95
2022-10-18T14:00:27.004Z,14.63
2022-10-18T14:03:44.073Z,15.60
2022-10-18T14:06:19.352Z,14.50
2022-10-18T14:09:26.200Z,14.63
2022-10-18T14:12:27.733Z,15.02
2022-10-18T14:15:12.807Z,13.80
2022-10-18T14:17:52.687Z,14.43
2022-10-18T14:20:30.707Z,16.70
2022-10-18T14:23:07.180Z,14.07
2022-10-18T14:25:36.373Z,13.70
2022-10-18T14:28:12.473Z,15.45
2022-10-18T14:30:59.935Z,15.77
2022-10-18T14:33:58.397Z,21.90
2022-10-18T14:36:29.730Z,17.70
2022-10-18T14:39:07.739Z,18.60
2022-10-18T14:41:38.631Z,14.82
2022-10-18T14:44:14.272Z,16.73
2022-10-18T14:46:44.828Z,13.98
2022-10-18T14:49:13.009Z,17.40
2022-10-18T14:51:42.433Z,16.80
2022-10-18T14:54:18.144Z,14.80
2022-10-18T14:56:45.866Z,16.92
2022-10-18T14:59:18.943Z,18.33
2022-10-18T15:01:55.883Z,14.77
2022-10-18T15:04:27.789Z,13.90
2022-10-18T15:06:55.906Z,18.92
2022-10-18T15:09:24.363Z,17.45
2022-10-18T15:11:51.821Z,15.90
2022-10-18T15:14:20.431Z,17.92
2022-10-18T15:16:51.875Z,19.85
2022-10-18T15:19:18.402Z,18.70
2022-10-18T15:22:13.650Z,23.13
2022-10-18T15:24:44.036Z,20.92
2022-10-18T15:27:11.962Z,21.58
2022-10-18T15:29:38.671Z,18.85
2022-10-18T15:32:14.676Z,20.73
2022-10-18T15:34:41.342Z,19.83
2022-10-18T15:37:36.603Z,19.77
2022-10-18T15:40:36.674Z,18.80
2022-10-18T15:43:06.175Z,20.10
2022-10-18T15:45:36.173Z,21.67
2022-10-18T15:48:13.106Z,21.02
2022-10-18T15:50:43.162Z,23.60
2022-10-18T15:53:25.277Z,20.17
2022-10-18T15:56:25.902Z,21.77
2022-10-18T15:58:53.739Z,23.63
2022-10-18T16:01:24.375Z,19.25
2022-10-18T16:03:51.756Z,22.63
2022-10-18T16:06:18.988Z,24.20
2022-10-18T16:08:50.648Z,22.13
2022-10-18T16:11:23.962Z,21.60
2022-10-18T16:13:55.187Z,19.90
2022-10-18T16:16:29.182Z,22.17
2022-10-18T16:18:57.051Z,26.23
2022-10-18T16:21:29.890Z,21.83
2022-10-18T16:23:56.973Z,25.10
2022-10-18T16:26:24.988Z,20.35
2022-10-18T16:28:53.180Z,24.35
2022-10-18T16:31:22.452Z,22.08
2022-10-18T16:33:50.161Z,23.65
2022-10-18T16:36:20.034Z,18.38
2022-10-18T16:38:48.007Z,26.25
2022-10-18T16:41:15.875Z,22.25
2022-10-18T16:43:47.310Z,27.38
2022-10-18T16:46:27.402Z,24.60
2022-10-18T16:48:54.552Z,24.98
2022-10-18T16:51:21.242Z,23.27
2022-10-18T16:53:48.553Z,24.13
2022-10-18T16:56:25.044Z,24.05
2022-10-18T16:58:51.702Z,24.85
2022-10-18T17:01:20.511Z,22.48
2022-10-18T17:03:47.894Z,22.58
2022-10-18T17:06:16.217Z,24.48
2022-10-18T17:08:43.262Z,22.60
2022-10-18T17:11:11.460Z,24.17
2022-10-18T17:13:38.566Z,28.30
2022-10-18T17:16:07.538Z,24.98
2022-10-18T17:18:34.133Z,26.35
2022-10-18T17:21:03.117Z,31.73
2022-10-18T17:23:30.605Z,29.05
2022-10-18T17:26:05.565Z,25.17
2022-10-18T17:28:41.890Z,27.08
2022-10-18T17:31:08.587Z,31.52
2022-10-18T17:33:35.670Z,30.92
2022-10-18T17:36:02.756Z,28.45
2022-10-18T17:38:29.384Z,27.75
2022-10-18T17:40:57.112Z,27.70
2022-10-18T17:43:23.822Z,30.08
2022-10-18T17:45:54.990Z,30.40
2022-10-18T17:48:22.810Z,32.65
2022-10-18T17:50:49.396Z,29.58
2022-10-18T17:53:18.336Z,27.95
2022-10-18T17:55:44.937Z,25.02
2022-10-18T17:58:11.610Z,26.80
2022-10-18T18:00:38.291Z,27.20
2022-10-18T18:03:05.113Z,24.52
2022-10-18T18:05:33.471Z,31.17
2022-10-18T18:08:03.862Z,25.38
2022-10-18T18:10:33.570Z,25.40
2022-10-18T18:13:01.261Z,23.98
2022-10-18T18:15:27.930Z,26.30
2022-10-18T18:17:58.369Z,27.73
2022-10-18T18:20:26.559Z,26.08
2022-10-18T18:22:55.723Z,28.42
2022-10-18T18:25:22.345Z,26.05
2022-10-18T18:27:48.950Z,23.85
2022-10-18T18:30:17.863Z,24.05
2022-10-18T18:32:44.741Z,25.67
2022-10-18T18:35:13.677Z,26.42
2022-10-18T18:37:40.547Z,31.15
2022-10-18T18:40:08.079Z,27.85
2022-10-18T18:42:34.898Z,26.77
2022-10-18T18:45:01.763Z,29.08
2022-10-18T18:47:28.698Z,28.20
2022-10-18T18:49:55.270Z,29.25
2022-10-18T18:52:22.157Z,29.20
2022-10-18T18:54:48.743Z,29.27
2022-10-18T19:00:17.595Z,29.35
2022-10-18T19:02:44.216Z,32.10
2022-10-18T19:05:10.943Z,29.05
2022-10-18T19:07:37.628Z,29.55
2022-10-18T19:10:04.719Z,26.63
2022-10-18T19:12:31.351Z,26.70
2022-10-18T19:14:57.999Z,30.42
2022-10-18T19:17:24.746Z,27.92
2022-10-18T19:19:52.052Z,26.48
2022-10-18T19:22:18.715Z,30.35
2022-10-18T19:24:45.335Z,27.27
2022-10-18T19:27:12.616Z,25.42
2022-10-18T19:29:41.155Z,24.58
2022-10-18T19:32:12.221Z,27.00
2022-10-18T19:34:39.364Z,28.95
2022-10-18T19:37:06.010Z,26.00
2022-10-18T19:39:35.961Z,26.05
2022-10-18T19:42:05.997Z,25.77
2022-10-18T19:44:34.971Z,27.42
2022-10-18T19:47:02.722Z,24.60
2022-10-18T19:49:29.872Z,28.60
2022-10-18T19:51:57.318Z,28.13
2022-10-18T19:54:24.808Z,29.55
2022-10-18T19:56:51.650Z,25.77
2022-10-18T19:59:18.872Z,26.45
2022-10-18T20:01:45.863Z,26.88
2022-10-18T20:04:14.283Z,28.92
2022-10-18T20:06:42.073Z,27.67
2022-10-18T20:09:13.353Z,30.55
2022-10-18T20:11:43.355Z,27.45
2022-10-18T20:14:10.802Z,28.77
2022-10-18T20:16:37.693Z,28.30
2022-10-18T20:19:07.606Z,31.73
2022-10-18T20:21:35.884Z,27.45
2022-10-18T20:24:04.507Z,27.75
2022-10-18T20:26:31.455Z,28.95
2022-10-18T20:29:08.195Z,27.45
2022-10-18T20:31:38.923Z,26.38
2022-10-18T20:34:08.486Z,26.48
2022-10-18T20:36:35.674Z,29.92
2022-10-18T20:39:03.712Z,33.53
2022-10-18T20:41:36.450Z,28.85
2022-10-18T20:46:34.311Z,29.15
2022-10-18T20:49:01.585Z,28.23
2022-10-18T20:51:28.592Z,27.20
2022-10-18T20:53:55.438Z,30.00
2022-10-18T20:56:26.368Z,28.80
2022-10-18T20:58:55.938Z,27.63
2022-10-18T21:01:28.160Z,32.33
2022-10-18T21:03:56.702Z,29.83
2022-10-18T21:06:28.601Z,28.77
2022-10-18T21:09:05.572Z,31.20
2022-10-18T21:11:36.561Z,31.20
2022-10-18T21:14:04.417Z,28.40
2022-10-18T21:16:32.793Z,31.17
2022-10-18T21:19:13.958Z,32.00
2022-10-18T21:21:43.875Z,29.55
2022-10-18T21:24:11.663Z,28.17
2022-10-18T21:26:38.418Z,28.95
2022-10-18T21:29:06.278Z,29.10
2022-10-18T21:31:36.282Z,33.25
2022-10-18T21:34:09.898Z,31.90
2022-10-18T21:36:37.235Z,32.03
2022-10-18T21:39:05.891Z,28.95
2022-10-18T21:41:36.334Z,29.58
2022-10-18T21:44:06.850Z,28.25
2022-10-18T21:46:36.605Z,32.65
2022-10-18T21:49:03.482Z,31.27
2022-10-18T21:51:30.150Z,29.52
2022-10-18T21:53:58.166Z,28.05
2022-10-18T21:56:30.213Z,28.05
2022-10-18T21:58:57.567Z,29.13
2022-10-18T22:01:27.092Z,31.25
2022-10-18T22:03:55.350Z,27.67
2022-10-18T22:06:22.745Z,29.75
2022-10-18T22:08:49.372Z,29.52
2022-10-18T22:11:16.950Z,27.27
2022-10-18T22:13:43.595Z,31.58
2022-10-18T22:16:14.236Z,26.75
2022-10-18T22:18:41.755Z,30.15
2022-10-18T22:21:10.320Z,32.00
2022-10-18T22:23:42.261Z,29.17
2022-10-18T22:26:12.400Z,29.55
2022-10-18T22:28:41.073Z,28.10
2022-10-18T22:31:17.481Z,25.90
2022-10-18T22:33:44.659Z,28.30
2022-10-18T22:36:11.661Z,27.92
2022-10-18T22:38:39.288Z,26.90
2022-10-18T22:41:10.898Z,31.15
2022-10-18T22:43:38.543Z,29.70
2022-10-18T22:46:07.523Z,27.80
2022-10-18T22:48:34.965Z,30.30
2022-10-18T22:51:02.123Z,28.35
2022-10-18T22:53:29.253Z,30.20
2022-10-18T22:55:56.153Z,27.73
2022-10-18T22:58:22.766Z,27.02
2022-10-18T23:00:49.424Z,29.80
2022-10-18T23:03:18.361Z,29.60
2022-10-18T23:05:46.747Z,28.75
2022-10-18T23:08:14.379Z,31.13
2022-10-18T23:10:42.363Z,29.92
2022-10-18T23:13:10.588Z,27.75
2022-10-18T23:15:39.103Z,30.05
2022-10-18T23:18:06.466Z,30.80
2022-10-18T23:20:33.266Z,25.77
2022-10-18T23:22:59.887Z,28.17
2022-10-18T23:25:27.258Z,26.75
2022-10-18T23:27:54.307Z,26.08
2022-10-18T23:30:20.953Z,28.27
2022-10-18T23:32:47.545Z,32.83
2022-10-18T23:35:14.253Z,26.00
2022-10-18T23:37:40.844Z,36.70
2022-10-18T23:40:08.374Z,30.30
2022-10-18T23:42:34.955Z,29.83
2022-10-18T23:45:01.729Z,32.10
2022-10-18T23:47:28.409Z,31.67
2022-10-18T23:49:57.212Z,29.48
2022-10-18T23:52:24.831Z,30.50
2022-10-18T23:54:51.552Z,31.35
2022-10-18T23:57:18.136Z,27.65
2022-10-18T23:59:44.725Z,30.77
